sensor_id;sensor_type;location;lat;lon;timestamp;P1;durP1;ratioP1;P2;durP2;ratioP2
70683;SDS011;58263;48.146;11.440;2022-08-27T00:02:14;6.80;;;4.00;;
70683;SDS011;58263;48.146;11.440;2022-08-27T00:04:41;6.07;;;3.60;;
70683;SDS011;58263;48.146;11.440;2022-08-27T00:07:07;4.22;;;3.25;;
70683;SDS011;58263;48.146;11.440;2022-08-27T00:09:33;4.90;;;3.80;;
70683;SDS011;58263;48.146;11.440;2022-08-27T00:11:59;7.20;;;3.55;;
70683;SDS011;58263;48.146;11.440;2022-08-27T00:14:25;6.00;;;3.80;;
70683;SDS011;58263;48.146;11.440;2022-08-27T00:16:51;10.85;;;4.10;;
70683;SDS011;58263;48.146;11.440;2022-08-27T00:19:16;7.10;;;3.78;;
70683;SDS011;58263;48.146;11.440;2022-08-27T00:21:43;5.82;;;4.00;;
70683;SDS011;58263;48.146;11.440;2022-08-27T00:24:08;7.55;;;3.97;;
70683;SDS011;58263;48.146;11.440;2022-08-27T00:26:34;5.78;;;3.47;;
70683;SDS011;58263;48.146;11.440;2022-08-27T00:28:59;4.70;;;3.83;;
70683;SDS011;58263;48.146;11.440;2022-08-27T00:31:25;9.57;;;4.30;;
70683;SDS011;58263;48.146;11.440;2022-08-27T00:33:51;5.05;;;3.78;;
70683;SDS011;58263;48.146;11.440;2022-08-27T00:36:16;4.97;;;4.20;;
70683;SDS011;58263;48.146;11.440;2022-08-27T00:38:41;10.03;;;4.43;;
70683;SDS011;58263;48.146;11.440;2022-08-27T00:41:08;6.87;;;4.17;;
70683;SDS011;58263;48.146;11.440;2022-08-27T00:46:37;7.57;;;4.25;;
70683;SDS011;58263;48.146;11.440;2022-08-27T00:49:11;7.00;;;4.35;;
70683;SDS011;58263;48.146;11.440;2022-08-27T00:51:40;7.63;;;4.63;;
70683;SDS011;58263;48.146;11.440;2022-08-27T00:54:08;9.93;;;5.63;;
70683;SDS011;58263;48.146;11.440;2022-08-27T00:56:35;9.02;;;4.68;;
70683;SDS011;58263;48.146;11.440;2022-08-27T00:59:04;6.10;;;4.20;;
70683;SDS011;58263;48.146;11.440;2022-08-27T01:01:31;6.30;;;4.40;;
70683;SDS011;58263;48.146;11.440;2022-08-27T01:03:59;9.23;;;4.50;;
70683;SDS011;58263;48.146;11.440;2022-08-27T01:06:29;6.38;;;4.32;;
70683;SDS011;58263;48.146;11.440;2022-08-27T01:09:00;8.73;;;5.00;;
70683;SDS011;58263;48.146;11.440;2022-08-27T01:11:28;7.65;;;4.85;;
70683;SDS011;58263;48.146;11.440;2022-08-27T01:13:55;7.20;;;4.90;;
70683;SDS011;58263;48.146;11.440;2022-08-27T01:16:30;11.32;;;4.80;;
70683;SDS011;58263;48.146;11.440;2022-08-27T01:19:00;7.97;;;5.28;;
70683;SDS011;58263;48.146;11.440;2022-08-27T01:27:03;9.30;;;4.80;;
70683;SDS011;58263;48.146;11.440;2022-08-27T01:29:31;6.75;;;4.95;;
70683;SDS011;58263;48.146;11.440;2022-08-27T01:32:20;7.57;;;4.60;;
70683;SDS011;58263;48.146;11.440;2022-08-27T01:34:44;8.52;;;5.35;;
70683;SDS011;58263;48.146;11.440;2022-08-27T01:37:11;9.88;;;5.15;;
70683;SDS011;58263;48.146;11.440;2022-08-27T01:39:38;6.88;;;4.22;;
70683;SDS011;58263;48.146;11.440;2022-08-27T01:42:07;7.88;;;5.22;;
70683;SDS011;58263;48.146;11.440;2022-08-27T01:44:48;7.15;;;5.10;;
70683;SDS011;58263;48.146;11.440;2022-08-27T01:47:17;10.30;;;4.82;;
70683;SDS011;58263;48.146;11.440;2022-08-27T01:49:45;7.63;;;4.85;;
70683;SDS011;58263;48.146;11.440;2022-08-27T01:52:11;8.93;;;5.20;;
70683;SDS011;58263;48.146;11.440;2022-08-27T01:54:38;9.15;;;5.22;;
70683;SDS011;58263;48.146;11.440;2022-08-27T01:57:03;7.77;;;4.43;;
70683;SDS011;58263;48.146;11.440;2022-08-27T01:59:29;10.68;;;5.15;;
70683;SDS011;58263;48.146;11.440;2022-08-27T02:01:54;10.85;;;5.20;;
70683;SDS011;58263;48.146;11.440;2022-08-27T02:04:20;8.35;;;5.30;;
70683;SDS011;58263;48.146;11.440;2022-08-27T02:06:46;8.30;;;5.03;;
70683;SDS011;58263;48.146;11.440;2022-08-27T02:09:12;7.57;;;4.93;;
70683;SDS011;58263;48.146;11.440;2022-08-27T02:11:37;8.60;;;5.15;;
70683;SDS011;58263;48.146;11.440;2022-08-27T02:14:02;6.68;;;5.35;;
70683;SDS011;58263;48.146;11.440;2022-08-27T02:16:28;10.35;;;5.43;;
70683;SDS011;58263;48.146;11.440;2022-08-27T02:18:56;8.77;;;5.40;;
70683;SDS011;58263;48.146;11.440;2022-08-27T02:21:22;6.53;;;5.05;;
70683;SDS011;58263;48.146;11.440;2022-08-27T02:23:48;7.75;;;4.80;;
70683;SDS011;58263;48.146;11.440;2022-08-27T02:26:14;12.45;;;5.20;;
70683;SDS011;58263;48.146;11.440;2022-08-27T02:28:39;8.40;;;5.00;;
70683;SDS011;58263;48.146;11.440;2022-08-27T02:31:04;8.87;;;5.43;;
70683;SDS011;58263;48.146;11.440;2022-08-27T02:33:31;7.95;;;5.28;;
70683;SDS011;58263;48.146;11.440;2022-08-27T02:35:57;6.82;;;5.22;;
70683;SDS011;58263;48.146;11.440;2022-08-27T02:38:23;8.48;;;4.38;;
70683;SDS011;58263;48.146;11.440;2022-08-27T02:40:48;8.13;;;4.45;;
70683;SDS011;58263;48.146;11.440;2022-08-27T02:43:13;7.67;;;4.83;;
70683;SDS011;58263;48.146;11.440;2022-08-27T02:45:39;9.63;;;5.10;;
70683;SDS011;58263;48.146;11.440;2022-08-27T02:48:04;8.90;;;4.63;;
70683;SDS011;58263;48.146;11.440;2022-08-27T02:50:31;6.35;;;4.13;;
70683;SDS011;58263;48.146;11.440;2022-08-27T02:52:57;6.10;;;3.65;;
70683;SDS011;58263;48.146;11.440;2022-08-27T02:55:26;5.65;;;3.70;;
70683;SDS011;58263;48.146;11.440;2022-08-27T02:57:52;5.43;;;3.60;;
70683;SDS011;58263;48.146;11.440;2022-08-27T03:00:18;5.78;;;3.50;;
70683;SDS011;58263;48.146;11.440;2022-08-27T03:02:45;5.70;;;3.38;;
70683;SDS011;58263;48.146;11.440;2022-08-27T03:05:11;4.50;;;3.28;;
70683;SDS011;58263;48.146;11.440;2022-08-27T03:07:37;5.03;;;3.40;;
70683;SDS011;58263;48.146;11.440;2022-08-27T03:10:04;5.20;;;3.05;;
70683;SDS011;58263;48.146;11.440;2022-08-27T03:12:31;3.47;;;3.15;;
70683;SDS011;58263;48.146;11.440;2022-08-27T03:14:57;6.38;;;3.35;;
70683;SDS011;58263;48.146;11.440;2022-08-27T03:17:22;4.65;;;3.25;;
70683;SDS011;58263;48.146;11.440;2022-08-27T03:20:06;3.60;;;3.13;;
70683;SDS011;58263;48.146;11.440;2022-08-27T03:22:35;4.10;;;2.88;;
70683;SDS011;58263;48.146;11.440;2022-08-27T03:25:01;3.60;;;3.10;;
70683;SDS011;58263;48.146;11.440;2022-08-27T03:27:28;5.13;;;2.90;;
70683;SDS011;58263;48.146;11.440;2022-08-27T03:29:53;3.42;;;2.85;;
70683;SDS011;58263;48.146;11.440;2022-08-27T03:32:18;4.70;;;2.67;;
70683;SDS011;58263;48.146;11.440;2022-08-27T03:34:44;3.17;;;2.87;;
70683;SDS011;58263;48.146;11.440;2022-08-27T03:37:09;4.47;;;2.90;;
70683;SDS011;58263;48.146;11.440;2022-08-27T03:39:35;4.05;;;3.00;;
70683;SDS011;58263;48.146;11.440;2022-08-27T03:42:00;4.25;;;3.10;;
70683;SDS011;58263;48.146;11.440;2022-08-27T03:44:25;3.70;;;2.90;;
70683;SDS011;58263;48.146;11.440;2022-08-27T03:46:51;4.60;;;3.40;;
70683;SDS011;58263;48.146;11.440;2022-08-27T03:49:17;5.72;;;3.50;;
70683;SDS011;58263;48.146;11.440;2022-08-27T03:51:44;5.35;;;3.30;;
70683;SDS011;58263;48.146;11.440;2022-08-27T03:54:10;5.07;;;3.63;;
70683;SDS011;58263;48.146;11.440;2022-08-27T03:56:35;5.22;;;3.75;;
70683;SDS011;58263;48.146;11.440;2022-08-27T03:59:03;5.25;;;3.60;;
70683;SDS011;58263;48.146;11.440;2022-08-27T04:01:29;5.75;;;4.22;;
70683;SDS011;58263;48.146;11.440;2022-08-27T04:03:55;7.20;;;3.90;;
70683;SDS011;58263;48.146;11.440;2022-08-27T04:06:21;6.80;;;3.80;;
70683;SDS011;58263;48.146;11.440;2022-08-27T04:08:46;5.30;;;3.67;;
70683;SDS011;58263;48.146;11.440;2022-08-27T04:11:11;4.38;;;3.53;;
70683;SDS011;58263;48.146;11.440;2022-08-27T04:13:37;7.40;;;3.78;;
70683;SDS011;58263;48.146;11.440;2022-08-27T04:16:03;5.83;;;3.60;;
70683;SDS011;58263;48.146;11.440;2022-08-27T04:18:29;4.60;;;4.10;;
70683;SDS011;58263;48.146;11.440;2022-08-27T04:20:54;4.07;;;3.58;;
70683;SDS011;58263;48.146;11.440;2022-08-27T04:23:20;6.40;;;4.28;;
70683;SDS011;58263;48.146;11.440;2022-08-27T04:25:46;5.88;;;3.85;;
70683;SDS011;58263;48.146;11.440;2022-08-27T04:28:11;3.67;;;3.17;;
70683;SDS011;58263;48.146;11.440;2022-08-27T04:30:42;4.80;;;3.45;;
70683;SDS011;58263;48.146;11.440;2022-08-27T04:33:10;5.90;;;3.08;;
70683;SDS011;58263;48.146;11.440;2022-08-27T04:35:37;7.07;;;3.88;;
70683;SDS011;58263;48.146;11.440;2022-08-27T04:38:02;4.10;;;3.53;;
70683;SDS011;58263;48.146;11.440;2022-08-27T04:40:28;4.15;;;3.70;;
70683;SDS011;58263;48.146;11.440;2022-08-27T04:43:13;4.35;;;3.22;;
70683;SDS011;58263;48.146;11.440;2022-08-27T04:45:41;9.55;;;3.83;;
70683;SDS011;58263;48.146;11.440;2022-08-27T04:48:08;7.38;;;3.63;;
70683;SDS011;58263;48.146;11.440;2022-08-27T04:50:37;5.03;;;3.55;;
70683;SDS011;58263;48.146;11.440;2022-08-27T04:53:04;7.43;;;4.00;;
70683;SDS011;58263;48.146;11.440;2022-08-27T04:55:29;5.43;;;4.10;;
70683;SDS011;58263;48.146;11.440;2022-08-27T04:57:55;6.13;;;4.00;;
70683;SDS011;58263;48.146;11.440;2022-08-27T05:00:20;7.77;;;3.80;;
70683;SDS011;58263;48.146;11.440;2022-08-27T05:02:46;7.00;;;3.80;;
70683;SDS011;58263;48.146;11.440;2022-08-27T05:05:11;6.43;;;4.10;;
70683;SDS011;58263;48.146;11.440;2022-08-27T05:07:37;6.72;;;3.72;;
70683;SDS011;58263;48.146;11.440;2022-08-27T05:10:03;5.93;;;3.60;;
70683;SDS011;58263;48.146;11.440;2022-08-27T05:12:28;6.45;;;3.90;;
70683;SDS011;58263;48.146;11.440;2022-08-27T05:14:53;4.57;;;3.57;;
70683;SDS011;58263;48.146;11.440;2022-08-27T05:17:19;5.03;;;4.18;;
70683;SDS011;58263;48.146;11.440;2022-08-27T05:19:45;6.18;;;4.15;;
70683;SDS011;58263;48.146;11.440;2022-08-27T05:22:10;4.68;;;3.58;;
70683;SDS011;58263;48.146;11.440;2022-08-27T05:24:36;5.43;;;3.80;;
70683;SDS011;58263;48.146;11.440;2022-08-27T05:27:01;5.13;;;3.80;;
70683;SDS011;58263;48.146;11.440;2022-08-27T05:29:26;4.07;;;3.30;;
70683;SDS011;58263;48.146;11.440;2022-08-27T05:31:52;5.75;;;3.95;;
70683;SDS011;58263;48.146;11.440;2022-08-27T05:34:18;6.43;;;3.60;;
70683;SDS011;58263;48.146;11.440;2022-08-27T05:36:44;5.45;;;4.10;;
70683;SDS011;58263;48.146;11.440;2022-08-27T05:39:10;5.93;;;3.95;;
70683;SDS011;58263;48.146;11.440;2022-08-27T05:41:35;6.73;;;3.50;;
70683;SDS011;58263;48.146;11.440;2022-08-27T05:44:02;7.80;;;4.20;;
70683;SDS011;58263;48.146;11.440;2022-08-27T05:46:30;5.55;;;3.58;;
70683;SDS011;58263;48.146;11.440;2022-08-27T05:48:56;5.97;;;3.70;;
70683;SDS011;58263;48.146;11.440;2022-08-27T05:51:28;7.18;;;3.47;;
70683;SDS011;58263;48.146;11.440;2022-08-27T05:53:58;5.00;;;3.95;;
70683;SDS011;58263;48.146;11.440;2022-08-27T05:56:27;7.00;;;3.75;;
70683;SDS011;58263;48.146;11.440;2022-08-27T05:58:54;4.35;;;3.78;;
70683;SDS011;58263;48.146;11.440;2022-08-27T06:01:41;7.40;;;3.67;;
70683;SDS011;58263;48.146;11.440;2022-08-27T06:04:09;6.72;;;3.50;;
70683;SDS011;58263;48.146;11.440;2022-08-27T06:06:36;4.45;;;3.42;;
70683;SDS011;58263;48.146;11.440;2022-08-27T06:09:03;18.75;;;10.52;;
70683;SDS011;58263;48.146;11.440;2022-08-27T06:11:29;5.50;;;4.18;;
70683;SDS011;58263;48.146;11.440;2022-08-27T06:13:55;7.17;;;3.73;;
70683;SDS011;58263;48.146;11.440;2022-08-27T06:16:21;5.65;;;3.67;;
70683;SDS011;58263;48.146;11.440;2022-08-27T06:18:47;6.10;;;3.85;;
70683;SDS011;58263;48.146;11.440;2022-08-27T06:21:13;6.03;;;4.07;;
70683;SDS011;58263;48.146;11.440;2022-08-27T06:23:40;7.95;;;5.00;;
70683;SDS011;58263;48.146;11.440;2022-08-27T06:26:08;5.85;;;4.20;;
70683;SDS011;58263;48.146;11.440;2022-08-27T06:28:35;6.05;;;3.78;;
70683;SDS011;58263;48.146;11.440;2022-08-27T06:31:05;5.28;;;3.65;;
70683;SDS011;58263;48.146;11.440;2022-08-27T06:33:38;5.90;;;4.10;;
70683;SDS011;58263;48.146;11.440;2022-08-27T06:36:06;5.60;;;4.05;;
70683;SDS011;58263;48.146;11.440;2022-08-27T06:38:33;6.38;;;4.55;;
70683;SDS011;58263;48.146;11.440;2022-08-27T06:40:59;7.18;;;4.57;;
70683;SDS011;58263;48.146;11.440;2022-08-27T06:43:26;5.88;;;4.63;;
70683;SDS011;58263;48.146;11.440;2022-08-27T06:45:52;7.33;;;5.33;;
70683;SDS011;58263;48.146;11.440;2022-08-27T06:48:17;10.60;;;6.00;;
70683;SDS011;58263;48.146;11.440;2022-08-27T06:50:44;7.65;;;5.55;;
70683;SDS011;58263;48.146;11.440;2022-08-27T06:53:10;8.85;;;6.05;;
70683;SDS011;58263;48.146;11.440;2022-08-27T06:55:40;7.95;;;6.40;;
70683;SDS011;58263;48.146;11.440;2022-08-27T06:58:06;10.98;;;7.07;;
70683;SDS011;58263;48.146;11.440;2022-08-27T07:00:32;10.85;;;6.95;;
70683;SDS011;58263;48.146;11.440;2022-08-27T07:02:57;9.93;;;6.70;;
70683;SDS011;58263;48.146;11.440;2022-08-27T07:05:22;11.63;;;6.83;;
70683;SDS011;58263;48.146;11.440;2022-08-27T07:07:48;10.67;;;6.87;;
70683;SDS011;58263;48.146;11.440;2022-08-27T07:10:13;7.87;;;6.40;;
70683;SDS011;58263;48.146;11.440;2022-08-27T07:12:38;11.23;;;7.00;;
70683;SDS011;58263;48.146;11.440;2022-08-27T07:15:04;9.48;;;7.28;;
70683;SDS011;58263;48.146;11.440;2022-08-27T07:17:29;10.95;;;7.28;;
70683;SDS011;58263;48.146;11.440;2022-08-27T07:19:55;11.30;;;6.43;;
70683;SDS011;58263;48.146;11.440;2022-08-27T07:22:20;11.50;;;6.72;;
70683;SDS011;58263;48.146;11.440;2022-08-27T07:24:45;10.13;;;7.10;;
70683;SDS011;58263;48.146;11.440;2022-08-27T07:27:11;11.23;;;6.90;;
70683;SDS011;58263;48.146;11.440;2022-08-27T07:29:36;11.55;;;6.85;;
70683;SDS011;58263;48.146;11.440;2022-08-27T07:32:02;8.98;;;6.95;;
70683;SDS011;58263;48.146;11.440;2022-08-27T07:34:28;10.50;;;7.15;;
70683;SDS011;58263;48.146;11.440;2022-08-27T07:36:53;10.47;;;6.33;;
70683;SDS011;58263;48.146;11.440;2022-08-27T07:39:19;9.10;;;5.78;;
70683;SDS011;58263;48.146;11.440;2022-08-27T07:41:44;14.97;;;9.13;;
70683;SDS011;58263;48.146;11.440;2022-08-27T07:44:28;10.18;;;7.13;;
70683;SDS011;58263;48.146;11.440;2022-08-27T07:46:54;10.20;;;6.70;;
70683;SDS011;58263;48.146;11.440;2022-08-27T07:49:21;9.25;;;6.40;;
70683;SDS011;58263;48.146;11.440;2022-08-27T07:51:47;9.32;;;6.65;;
70683;SDS011;58263;48.146;11.440;2022-08-27T07:54:14;14.10;;;7.18;;
70683;SDS011;58263;48.146;11.440;2022-08-27T07:56:40;9.52;;;6.45;;
70683;SDS011;58263;48.146;11.440;2022-08-27T07:59:06;10.40;;;6.57;;
70683;SDS011;58263;48.146;11.440;2022-08-27T08:01:32;8.45;;;6.47;;
70683;SDS011;58263;48.146;11.440;2022-08-27T08:03:58;8.20;;;5.90;;
70683;SDS011;58263;48.146;11.440;2022-08-27T08:06:23;9.60;;;6.73;;
70683;SDS011;58263;48.146;11.440;2022-08-27T08:08:48;11.70;;;6.45;;
70683;SDS011;58263;48.146;11.440;2022-08-27T08:11:16;8.13;;;5.93;;
70683;SDS011;58263;48.146;11.440;2022-08-27T08:13:42;7.47;;;5.82;;
70683;SDS011;58263;48.146;11.440;2022-08-27T08:16:09;7.05;;;4.65;;
70683;SDS011;58263;48.146;11.440;2022-08-27T08:18:34;5.53;;;4.57;;
70683;SDS011;58263;48.146;11.440;2022-08-27T08:21:01;6.45;;;4.90;;
70683;SDS011;58263;48.146;11.440;2022-08-27T08:23:28;7.55;;;4.90;;
70683;SDS011;58263;48.146;11.440;2022-08-27T08:25:54;6.93;;;4.78;;
70683;SDS011;58263;48.146;11.440;2022-08-27T08:28:21;6.10;;;4.60;;
70683;SDS011;58263;48.146;11.440;2022-08-27T08:30:47;5.88;;;4.25;;
70683;SDS011;58263;48.146;11.440;2022-08-27T08:33:12;5.73;;;4.77;;
70683;SDS011;58263;48.146;11.440;2022-08-27T08:35:38;6.47;;;5.00;;
70683;SDS011;58263;48.146;11.440;2022-08-27T08:38:04;6.18;;;4.53;;
70683;SDS011;58263;48.146;11.440;2022-08-27T08:40:32;6.85;;;4.60;;
70683;SDS011;58263;48.146;11.440;2022-08-27T08:43:03;5.85;;;4.40;;
70683;SDS011;58263;48.146;11.440;2022-08-27T08:45:32;6.30;;;4.82;;
70683;SDS011;58263;48.146;11.440;2022-08-27T08:51:06;5.50;;;4.75;;
70683;SDS011;58263;48.146;11.440;2022-08-27T08:56:27;5.13;;;4.40;;
70683;SDS011;58263;48.146;11.440;2022-08-27T08:59:20;6.43;;;4.35;;
70683;SDS011;58263;48.146;11.440;2022-08-27T09:02:02;5.25;;;4.00;;
70683;SDS011;58263;48.146;11.440;2022-08-27T09:04:30;5.25;;;3.95;;
70683;SDS011;58263;48.146;11.440;2022-08-27T09:09:37;9.10;;;5.93;;
70683;SDS011;58263;48.146;11.440;2022-08-27T09:14:56;6.30;;;4.10;;
70683;SDS011;58263;48.146;11.440;2022-08-27T09:17:23;5.78;;;4.53;;
70683;SDS011;58263;48.146;11.440;2022-08-27T09:19:48;5.45;;;3.92;;
70683;SDS011;58263;48.146;11.440;2022-08-27T09:22:17;6.30;;;3.85;;
70683;SDS011;58263;48.146;11.440;2022-08-27T09:25:08;6.32;;;3.35;;
70683;SDS011;58263;48.146;11.440;2022-08-27T09:27:40;6.75;;;4.40;;
70683;SDS011;58263;48.146;11.440;2022-08-27T09:30:08;5.25;;;4.13;;
70683;SDS011;58263;48.146;11.440;2022-08-27T09:32:42;9.45;;;5.15;;
70683;SDS011;58263;48.146;11.440;2022-08-27T09:35:08;4.47;;;3.72;;
70683;SDS011;58263;48.146;11.440;2022-08-27T09:37:44;6.95;;;4.32;;
70683;SDS011;58263;48.146;11.440;2022-08-27T09:45:12;6.75;;;4.43;;
70683;SDS011;58263;48.146;11.440;2022-08-27T09:47:40;5.28;;;3.80;;
70683;SDS011;58263;48.146;11.440;2022-08-27T09:50:07;7.30;;;4.75;;
70683;SDS011;58263;48.146;11.440;2022-08-27T09:52:38;5.57;;;4.32;;
70683;SDS011;58263;48.146;11.440;2022-08-27T09:55:19;7.00;;;4.70;;
70683;SDS011;58263;48.146;11.440;2022-08-27T09:58:18;7.35;;;4.60;;
70683;SDS011;58263;48.146;11.440;2022-08-27T10:00:46;6.25;;;4.47;;
70683;SDS011;58263;48.146;11.440;2022-08-27T10:03:12;6.25;;;4.80;;
70683;SDS011;58263;48.146;11.440;2022-08-27T10:05:43;5.47;;;4.47;;
70683;SDS011;58263;48.146;11.440;2022-08-27T10:22:22;5.53;;;4.80;;
70683;SDS011;58263;48.146;11.440;2022-08-27T10:30:49;5.40;;;3.92;;
70683;SDS011;58263;48.146;11.440;2022-08-27T10:36:39;9.60;;;3.92;;
70683;SDS011;58263;48.146;11.440;2022-08-27T10:44:44;6.80;;;4.28;;
70683;SDS011;58263;48.146;11.440;2022-08-27T10:47:22;5.05;;;3.90;;
70683;SDS011;58263;48.146;11.440;2022-08-27T10:50:07;8.02;;;3.85;;
70683;SDS011;58263;48.146;11.440;2022-08-27T10:52:49;7.60;;;4.38;;
70683;SDS011;58263;48.146;11.440;2022-08-27T10:55:33;5.03;;;3.90;;
70683;SDS011;58263;48.146;11.440;2022-08-27T11:03:43;5.22;;;3.92;;
70683;SDS011;58263;48.146;11.440;2022-08-27T11:06:31;4.55;;;3.22;;
70683;SDS011;58263;48.146;11.440;2022-08-27T11:09:03;3.30;;;3.00;;
70683;SDS011;58263;48.146;11.440;2022-08-27T11:11:39;9.68;;;3.17;;
70683;SDS011;58263;48.146;11.440;2022-08-27T11:14:08;5.55;;;3.22;;
70683;SDS011;58263;48.146;11.440;2022-08-27T11:16:47;4.82;;;3.42;;
70683;SDS011;58263;48.146;11.440;2022-08-27T11:19:18;3.90;;;3.05;;
70683;SDS011;58263;48.146;11.440;2022-08-27T11:24:21;3.28;;;2.88;;
70683;SDS011;58263;48.146;11.440;2022-08-27T11:26:54;4.00;;;3.20;;
70683;SDS011;58263;48.146;11.440;2022-08-27T11:29:25;4.05;;;3.28;;
70683;SDS011;58263;48.146;11.440;2022-08-27T11:35:00;3.08;;;2.80;;
70683;SDS011;58263;48.146;11.440;2022-08-27T11:43:29;3.30;;;3.00;;
70683;SDS011;58263;48.146;11.440;2022-08-27T11:45:59;4.97;;;3.17;;
70683;SDS011;58263;48.146;11.440;2022-08-27T11:48:28;3.88;;;3.05;;
70683;SDS011;58263;48.146;11.440;2022-08-27T11:51:00;4.35;;;2.95;;
70683;SDS011;58263;48.146;11.440;2022-08-27T11:53:39;4.32;;;3.10;;
70683;SDS011;58263;48.146;11.440;2022-08-27T11:56:14;4.43;;;3.05;;
70683;SDS011;58263;48.146;11.440;2022-08-27T11:58:45;3.58;;;2.92;;
70683;SDS011;58263;48.146;11.440;2022-08-27T12:01:15;4.53;;;2.70;;
70683;SDS011;58263;48.146;11.440;2022-08-27T12:03:58;3.40;;;2.40;;
70683;SDS011;58263;48.146;11.440;2022-08-27T12:06:25;2.75;;;2.55;;
70683;SDS011;58263;48.146;11.440;2022-08-27T12:08:51;6.90;;;4.90;;
70683;SDS011;58263;48.146;11.440;2022-08-27T12:11:30;4.32;;;3.65;;
70683;SDS011;58263;48.146;11.440;2022-08-27T12:14:10;6.05;;;2.63;;
70683;SDS011;58263;48.146;11.440;2022-08-27T12:19:41;5.30;;;3.77;;
70683;SDS011;58263;48.146;11.440;2022-08-27T12:25:32;5.80;;;2.58;;
70683;SDS011;58263;48.146;11.440;2022-08-27T12:28:01;4.22;;;2.67;;
70683;SDS011;58263;48.146;11.440;2022-08-27T12:30:33;4.53;;;2.53;;
70683;SDS011;58263;48.146;11.440;2022-08-27T12:33:08;2.55;;;2.35;;
70683;SDS011;58263;48.146;11.440;2022-08-27T12:35:42;3.38;;;2.60;;
70683;SDS011;58263;48.146;11.440;2022-08-27T12:38:17;4.10;;;2.60;;
70683;SDS011;58263;48.146;11.440;2022-08-27T12:40:48;4.28;;;2.90;;
70683;SDS011;58263;48.146;11.440;2022-08-27T12:43:25;3.15;;;2.60;;
70683;SDS011;58263;48.146;11.440;2022-08-27T12:46:02;3.50;;;2.38;;
70683;SDS011;58263;48.146;11.440;2022-08-27T12:48:35;4.38;;;2.65;;
70683;SDS011;58263;48.146;11.440;2022-08-27T12:51:22;4.32;;;2.90;;
70683;SDS011;58263;48.146;11.440;2022-08-27T12:56:21;3.95;;;2.75;;
70683;SDS011;58263;48.146;11.440;2022-08-27T12:59:11;2.63;;;2.42;;
70683;SDS011;58263;48.146;11.440;2022-08-27T13:04:31;3.85;;;2.72;;
70683;SDS011;58263;48.146;11.440;2022-08-27T13:06:57;3.35;;;2.80;;
70683;SDS011;58263;48.146;11.440;2022-08-27T13:09:24;3.42;;;2.80;;
70683;SDS011;58263;48.146;11.440;2022-08-27T13:11:55;3.40;;;2.35;;
70683;SDS011;58263;48.146;11.440;2022-08-27T13:14:23;3.63;;;2.50;;
70683;SDS011;58263;48.146;11.440;2022-08-27T13:16:51;3.17;;;2.47;;
70683;SDS011;58263;48.146;11.440;2022-08-27T13:24:45;4.20;;;2.65;;
70683;SDS011;58263;48.146;11.440;2022-08-27T13:27:14;2.53;;;2.28;;
70683;SDS011;58263;48.146;11.440;2022-08-27T13:29:40;4.03;;;2.53;;
70683;SDS011;58263;48.146;11.440;2022-08-27T13:32:07;4.85;;;2.50;;
70683;SDS011;58263;48.146;11.440;2022-08-27T13:34:35;2.53;;;2.33;;
70683;SDS011;58263;48.146;11.440;2022-08-27T13:37:09;3.78;;;2.50;;
70683;SDS011;58263;48.146;11.440;2022-08-27T13:39:45;3.65;;;2.40;;
70683;SDS011;58263;48.146;11.440;2022-08-27T13:42:10;2.83;;;2.37;;
70683;SDS011;58263;48.146;11.440;2022-08-27T13:44:36;2.67;;;2.40;;
70683;SDS011;58263;48.146;11.440;2022-08-27T13:47:07;3.13;;;2.55;;
70683;SDS011;58263;48.146;11.440;2022-08-27T13:49:40;4.20;;;2.50;;
70683;SDS011;58263;48.146;11.440;2022-08-27T13:52:22;4.78;;;2.17;;
70683;SDS011;58263;48.146;11.440;2022-08-27T13:54:56;4.85;;;2.60;;
70683;SDS011;58263;48.146;11.440;2022-08-27T13:57:30;3.97;;;2.70;;
70683;SDS011;58263;48.146;11.440;2022-08-27T14:00:08;4.85;;;2.60;;
70683;SDS011;58263;48.146;11.440;2022-08-27T14:02:55;6.30;;;2.65;;
70683;SDS011;58263;48.146;11.440;2022-08-27T14:07:49;3.73;;;2.67;;
70683;SDS011;58263;48.146;11.440;2022-08-27T14:12:42;3.50;;;2.87;;
70683;SDS011;58263;48.146;11.440;2022-08-27T14:15:32;4.03;;;2.65;;
70683;SDS011;58263;48.146;11.440;2022-08-27T14:21:12;3.97;;;2.50;;
70683;SDS011;58263;48.146;11.440;2022-08-27T14:23:38;5.87;;;2.83;;
70683;SDS011;58263;48.146;11.440;2022-08-27T14:26:03;4.97;;;2.90;;
70683;SDS011;58263;48.146;11.440;2022-08-27T14:28:29;4.20;;;2.95;;
70683;SDS011;58263;48.146;11.440;2022-08-27T14:30:55;2.70;;;2.30;;
70683;SDS011;58263;48.146;11.440;2022-08-27T14:33:20;3.60;;;2.60;;
70683;SDS011;58263;48.146;11.440;2022-08-27T14:35:46;4.53;;;2.93;;
70683;SDS011;58263;48.146;11.440;2022-08-27T14:38:13;3.30;;;2.72;;
70683;SDS011;58263;48.146;11.440;2022-08-27T14:40:43;3.75;;;2.70;;
70683;SDS011;58263;48.146;11.440;2022-08-27T14:43:09;4.57;;;2.72;;
70683;SDS011;58263;48.146;11.440;2022-08-27T14:45:35;3.63;;;2.75;;
70683;SDS011;58263;48.146;11.440;2022-08-27T14:48:03;5.03;;;2.90;;
70683;SDS011;58263;48.146;11.440;2022-08-27T14:50:31;3.38;;;2.72;;
70683;SDS011;58263;48.146;11.440;2022-08-27T14:52:56;4.07;;;2.88;;
70683;SDS011;58263;48.146;11.440;2022-08-27T14:55:22;5.47;;;2.95;;
70683;SDS011;58263;48.146;11.440;2022-08-27T14:57:47;5.22;;;3.25;;
70683;SDS011;58263;48.146;11.440;2022-08-27T15:00:12;4.07;;;2.70;;
70683;SDS011;58263;48.146;11.440;2022-08-27T15:02:38;5.72;;;2.95;;
70683;SDS011;58263;48.146;11.440;2022-08-27T15:05:08;4.50;;;2.67;;
70683;SDS011;58263;48.146;11.440;2022-08-27T15:07:33;5.43;;;3.27;;
70683;SDS011;58263;48.146;11.440;2022-08-27T15:09:59;3.47;;;2.70;;
70683;SDS011;58263;48.146;11.440;2022-08-27T15:12:24;4.53;;;3.33;;
70683;SDS011;58263;48.146;11.440;2022-08-27T15:14:49;4.63;;;2.80;;
70683;SDS011;58263;48.146;11.440;2022-08-27T15:17:15;5.78;;;2.70;;
70683;SDS011;58263;48.146;11.440;2022-08-27T15:19:40;5.53;;;3.22;;
70683;SDS011;58263;48.146;11.440;2022-08-27T15:22:17;3.70;;;2.97;;
70683;SDS011;58263;48.146;11.440;2022-08-27T15:24:55;3.88;;;3.00;;
70683;SDS011;58263;48.146;11.440;2022-08-27T15:27:21;5.40;;;3.22;;
70683;SDS011;58263;48.146;11.440;2022-08-27T15:29:47;5.75;;;2.90;;
70683;SDS011;58263;48.146;11.440;2022-08-27T15:32:17;6.00;;;3.30;;
70683;SDS011;58263;48.146;11.440;2022-08-27T15:34:48;5.07;;;3.33;;
70683;SDS011;58263;48.146;11.440;2022-08-27T15:37:13;4.95;;;3.53;;
70683;SDS011;58263;48.146;11.440;2022-08-27T15:39:39;7.90;;;3.30;;
70683;SDS011;58263;48.146;11.440;2022-08-27T15:42:04;4.90;;;3.20;;
70683;SDS011;58263;48.146;11.440;2022-08-27T15:44:32;4.10;;;3.22;;
70683;SDS011;58263;48.146;11.440;2022-08-27T15:46:58;4.93;;;3.15;;
70683;SDS011;58263;48.146;11.440;2022-08-27T15:49:24;3.97;;;3.30;;
70683;SDS011;58263;48.146;11.440;2022-08-27T15:51:49;5.97;;;3.90;;
70683;SDS011;58263;48.146;11.440;2022-08-27T15:54:15;5.60;;;3.38;;
70683;SDS011;58263;48.146;11.440;2022-08-27T15:56:40;4.60;;;3.60;;
70683;SDS011;58263;48.146;11.440;2022-08-27T15:59:06;5.10;;;3.87;;
70683;SDS011;58263;48.146;11.440;2022-08-27T16:01:32;6.17;;;3.83;;
70683;SDS011;58263;48.146;11.440;2022-08-27T16:03:59;5.03;;;3.80;;
70683;SDS011;58263;48.146;11.440;2022-08-27T16:06:25;6.03;;;4.25;;
70683;SDS011;58263;48.146;11.440;2022-08-27T16:08:51;5.93;;;3.97;;
70683;SDS011;58263;48.146;11.440;2022-08-27T16:11:17;5.47;;;4.22;;
70683;SDS011;58263;48.146;11.440;2022-08-27T16:13:42;7.47;;;4.65;;
70683;SDS011;58263;48.146;11.440;2022-08-27T16:16:08;6.53;;;4.70;;
70683;SDS011;58263;48.146;11.440;2022-08-27T16:18:34;6.00;;;4.53;;